Time;durP1;ratioP1;P1;durP2;ratioP2;P2;SDS_P1;SDS_P2;PMS_P1;PMS_P2;Temp;Humidity;BMP_temperature;BMP_pressure;BME280_temperature;BME280_humidity;BME280_pressure;Samples;Min_cycle;Max_cycle;Signal;HPM_P1;HPM_P2
2023/10/06 00:01:48;;;;;;;12.15;4.60;;;;;;;12.59;100.00;102270.50;6022388;23;20471;-88
2023/10/06 00:04:16;;;;;;;11.10;5.40;;;;;;;12.62;100.00;102272.72;6069687;23;20018;-87
2023/10/06 00:06:43;;;;;;;10.35;6.43;;;;;;;12.65;100.00;102271.41;6045222;23;20018;-89
2023/10/06 00:09:09;;;;;;;12.63;7.18;;;;;;;12.67;100.00;102272.81;6022831;23;20017;-89
2023/10/06 00:11:40;;;;;;;10.40;6.38;;;;;;;12.68;100.00;102265.56;6022097;23;20018;-91
2023/10/06 00:14:18;;;;;;;9.93;5.63;;;;;;;12.68;100.00;102270.94;6046209;23;20030;-92
2023/10/06 00:16:45;;;;;;;13.13;6.85;;;;;;;12.66;100.00;102275.72;6045659;23;20014;-90
2023/10/06 00:19:31;;;;;;;12.45;6.55;;;;;;;12.65;100.00;102274.91;6022573;23;20034;-88
2023/10/06 00:24:37;;;;;;;9.20;5.57;;;;;;;12.57;100.00;102270.75;6094834;23;20038;-87
2023/10/06 00:27:03;;;;;;;10.40;6.00;;;;;;;12.56;100.00;102279.09;6068822;23;20021;-89
2023/10/06 00:29:29;;;;;;;10.88;6.05;;;;;;;12.51;100.00;102257.50;5998546;23;20018;-90
2023/10/06 00:32:01;;;;;;;6.93;5.40;;;;;;;12.49;100.00;102265.00;6022351;23;20014;-89
2023/10/06 00:34:30;;;;;;;14.50;6.15;;;;;;;12.47;100.00;102267.13;6046087;23;20025;-88
2023/10/06 00:37:01;;;;;;;10.68;5.97;;;;;;;12.45;100.00;102261.16;6045208;23;20473;-91
2023/10/06 00:39:30;;;;;;;12.38;7.10;;;;;;;12.52;100.00;102261.81;6020014;23;20511;-89
2023/10/06 00:41:59;;;;;;;12.20;7.90;;;;;;;12.54;100.00;102241.72;6070415;23;20010;-90
2023/10/06 00:44:25;;;;;;;13.65;8.23;;;;;;;12.61;100.00;102244.22;6021798;23;20484;-90
2023/10/06 00:46:52;;;;;;;14.02;8.27;;;;;;;12.64;100.00;102248.28;6022173;23;20021;-90
2023/10/06 00:49:19;;;;;;;17.70;9.48;;;;;;;12.67;100.00;102245.13;6022332;23;20483;-89
2023/10/06 00:51:45;;;;;;;16.15;9.43;;;;;;;12.69;100.00;102251.88;6021894;23;20014;-90
2023/10/06 00:54:11;;;;;;;11.05;8.07;;;;;;;12.69;100.00;102251.06;6070250;23;20019;-91
2023/10/06 00:56:38;;;;;;;16.52;8.65;;;;;;;12.69;100.00;102257.25;6021706;23;20042;-91
2023/10/06 00:59:04;;;;;;;16.90;7.25;;;;;;;12.69;100.00;102259.94;6022505;23;20353;-91
2023/10/06 01:01:30;;;;;;;11.32;7.25;;;;;;;12.66;100.00;102257.72;6045676;23;20018;-90
2023/10/06 01:04:06;;;;;;;13.15;7.18;;;;;;;12.63;100.00;102252.03;6022005;23;20026;-89
2023/10/06 01:06:34;;;;;;;13.00;6.82;;;;;;;12.58;100.00;102248.19;6045259;23;20011;-89
2023/10/06 01:09:13;;;;;;;9.20;6.45;;;;;;;12.56;100.00;102247.66;6045544;23;20352;-88
2023/10/06 01:11:51;;;;;;;10.50;7.00;;;;;;;12.53;100.00;102241.94;6045545;23;20011;-90
2023/10/06 01:14:34;;;;;;;9.90;7.53;;;;;;;12.48;100.00;102239.19;6021930;23;20022;-90
2023/10/06 01:19:36;;;;;;;13.10;7.18;;;;;;;12.38;100.00;102220.22;6067624;23;20093;-90
2023/10/06 01:24:53;;;;;;;11.15;7.05;;;;;;;12.28;100.00;102228.94;6073764;23;20014;-90
2023/10/06 01:27:25;;;;;;;11.55;7.55;;;;;;;12.24;100.00;102228.59;6046748;23;20010;-89
2023/10/06 01:32:49;;;;;;;10.15;6.85;;;;;;;12.22;100.00;102232.59;6044052;23;20069;-88
2023/10/06 01:35:15;;;;;;;14.73;8.30;;;;;;;12.20;100.00;102232.03;6046069;23;20021;-90
2023/10/06 01:37:44;;;;;;;;;;;;;;;12.19;100.00;102228.53;6045918;23;20014;-90
2023/10/06 01:42:56;;;;;;;12.63;7.90;;;;;;;12.16;100.00;102228.19;6045682;23;20096;-91
2023/10/06 01:45:21;;;;;;;13.52;9.00;;;;;;;12.17;100.00;102227.94;6045316;23;20021;-91
2023/10/06 01:48:22;;;;;;;11.30;7.45;;;;;;;12.18;100.00;102218.03;6021907;23;20018;-91
2023/10/06 01:50:49;;;;;;;12.00;7.78;;;;;;;12.20;100.00;102222.13;6044604;23;20059;-89
2023/10/06 01:53:19;;;;;;;12.10;7.45;;;;;;;12.20;100.00;102224.78;6022329;23;20030;-89
2023/10/06 01:55:51;;;;;;;12.30;8.40;;;;;;;12.22;100.00;102219.16;6021110;23;20018;-89
2023/10/06 01:58:17;;;;;;;12.63;8.55;;;;;;;12.21;100.00;102212.19;6039626;23;20651;-90
2023/10/06 02:00:45;;;;;;;19.10;9.60;;;;;;;12.19;100.00;102209.75;6022312;23;20021;-90
2023/10/06 02:03:11;;;;;;;12.05;8.27;;;;;;;12.19;100.00;102204.38;6070926;23;20074;-90
2023/10/06 02:05:39;;;;;;;;;;;;;;;12.18;100.00;102202.72;6023237;23;20042;-91
2023/10/06 02:08:14;;;;;;;10.98;7.38;;;;;;;12.19;100.00;102193.63;6024121;23;19909;-90
2023/10/06 02:10:43;;;;;;;13.32;8.48;;;;;;;12.22;100.00;102201.19;6042861;23;20465;-89
2023/10/06 02:13:08;;;;;;;14.25;8.70;;;;;;;12.21;100.00;102196.88;6023348;23;20013;-88
2023/10/06 02:15:34;;;;;;;15.65;8.88;;;;;;;12.21;100.00;102191.50;6046642;23;20093;-91
2023/10/06 02:18:00;;;;;;;;;;;;;;;12.26;100.00;102199.66;6048121;23;20021;-89
2023/10/06 02:23:00;;;;;;;14.65;8.85;;;;;;;12.32;100.00;102203.19;6069782;23;20018;-88
2023/10/06 02:25:27;;;;;;;12.18;8.43;;;;;;;12.29;100.00;102195.66;6024089;23;20057;-89
2023/10/06 02:27:53;;;;;;;17.58;8.88;;;;;;;12.30;100.00;102197.28;6047182;23;20746;-89
2023/10/06 02:30:33;;;;;;;17.42;8.20;;;;;;;12.28;100.00;102192.16;6046947;23;20021;-88
2023/10/06 02:33:03;;;;;;;19.90;9.90;;;;;;;12.28;100.00;102176.03;6023751;23;20043;-90
2023/10/06 02:35:31;;;;;;;18.13;9.88;;;;;;;12.34;100.00;102179.63;6018953;23;20029;-89
2023/10/06 02:37:58;;;;;;;16.23;9.30;;;;;;;12.36;100.00;102182.03;6047115;23;20018;-90
2023/10/06 02:40:37;;;;;;;14.13;9.32;;;;;;;12.39;100.00;102160.03;6043345;23;20010;-89
2023/10/06 02:43:07;;;;;;;15.00;9.18;;;;;;;12.39;100.00;102149.31;6046614;23;20014;-91
2023/10/06 02:45:40;;;;;;;15.23;8.27;;;;;;;12.44;100.00;102152.06;6023386;23;20037;-89
2023/10/06 02:48:14;;;;;;;18.15;9.13;;;;;;;12.46;100.00;102152.63;6023638;23;20014;-91
2023/10/06 02:50:49;;;;;;;14.27;8.18;;;;;;;12.48;100.00;102150.53;6022790;23;20026;-91
2023/10/06 02:53:20;;;;;;;15.88;7.95;;;;;;;12.47;100.00;102157.78;6046836;23;20026;-90
2023/10/06 02:55:49;;;;;;;13.55;6.97;;;;;;;12.49;100.00;102157.53;6023362;23;20014;-90
2023/10/06 02:58:27;;;;;;;14.07;7.00;;;;;;;12.49;100.00;102149.47;6047722;23;20010;-90
2023/10/06 03:00:55;;;;;;;13.90;7.18;;;;;;;12.52;100.00;102151.63;6022732;23;20257;-89
2023/10/06 03:03:27;;;;;;;15.07;8.00;;;;;;;12.52;100.00;102149.75;6023469;23;20038;-89
2023/10/06 03:05:56;;;;;;;14.52;8.07;;;;;;;12.50;100.00;102143.03;6046418;23;20014;-89
2023/10/06 03:08:25;;;;;;;;;;;;;;;12.53;100.00;102143.34;6024139;23;20018;-90
2023/10/06 03:10:52;;;;;;;12.40;8.07;;;;;;;12.55;100.00;102132.34;6046547;23;19909;-91
2023/10/06 03:13:43;;;;;;;15.88;9.18;;;;;;;12.56;100.00;102128.59;6023203;23;20026;-89
2023/10/06 03:16:11;;;;;;;14.95;8.77;;;;;;;12.60;100.00;102134.25;6024998;23;20029;-89
2023/10/06 03:18:39;;;;;;;13.23;9.13;;;;;;;12.61;100.00;102136.72;6046375;23;20018;-90
2023/10/06 03:21:13;;;;;;;16.45;9.90;;;;;;;12.64;100.00;102120.09;6023537;23;20076;-89
2023/10/06 03:23:43;;;;;;;14.80;9.70;;;;;;;12.65;100.00;102127.09;6023476;23;20106;-91
2023/10/06 03:26:29;;;;;;;15.75;9.98;;;;;;;12.66;100.00;102128.72;6070493;23;20607;-90
2023/10/06 03:29:03;;;;;;;18.25;9.25;;;;;;;12.68;100.00;102131.16;6044463;23;20089;-91
2023/10/06 03:31:47;;;;;;;16.25;10.00;;;;;;;12.63;100.00;102118.47;6002225;23;20073;-90
2023/10/06 03:34:20;;;;;;;18.23;9.68;;;;;;;12.67;100.00;102119.59;6073069;23;20022;-90
2023/10/06 03:36:51;;;;;;;15.68;9.52;;;;;;;12.68;100.00;102115.03;6047201;23;20050;-89
2023/10/06 03:39:28;;;;;;;16.08;9.70;;;;;;;12.68;100.00;102112.34;6071218;23;20036;-90
2023/10/06 03:42:02;;;;;;;15.50;8.82;;;;;;;12.66;100.00;102117.94;6071914;23;20349;-91
2023/10/06 03:44:30;;;;;;;16.15;9.80;;;;;;;12.67;100.00;102108.03;6049233;23;20024;-89
2023/10/06 03:47:01;;;;;;;18.33;10.27;;;;;;;12.70;100.00;102092.22;6046595;23;20029;-89
2023/10/06 03:49:33;;;;;;;18.20;9.80;;;;;;;12.70;100.00;102089.53;6022344;23;20014;-89
2023/10/06 03:51:59;;;;;;;17.15;10.10;;;;;;;12.73;100.00;102088.19;6023519;23;20698;-90
2023/10/06 03:54:24;;;;;;;;;;;;;;;12.71;100.00;102093.84;6023946;23;20014;-90
2023/10/06 03:56:50;;;;;;;17.13;10.43;;;;;;;12.73;100.00;102091.69;6022931;23;20335;-89
2023/10/06 03:59:16;;;;;;;17.00;9.68;;;;;;;12.76;100.00;102101.97;6047070;23;20445;-91
2023/10/06 04:01:47;;;;;;;19.15;10.75;;;;;;;12.77;100.00;102100.91;6066493;23;20089;-89
2023/10/06 04:04:15;;;;;;;14.80;9.32;;;;;;;12.80;100.00;102099.56;6042409;23;20358;-90
2023/10/06 04:06:41;;;;;;;20.30;10.80;;;;;;;12.75;100.00;102094.16;6043224;23;20018;-90
2023/10/06 04:09:18;;;;;;;16.25;10.23;;;;;;;12.77;100.00;102102.78;6043739;23;20046;-90
2023/10/06 04:11:47;;;;;;;20.45;10.68;;;;;;;12.79;100.00;102092.56;6043332;23;20006;-89
2023/10/06 04:14:14;;;;;;;13.52;9.95;;;;;;;12.84;100.00;102093.44;6043307;23;20022;-90
2023/10/06 04:16:45;;;;;;;19.13;10.57;;;;;;;12.81;100.00;102093.97;6042808;23;20014;-89
2023/10/06 04:19:15;;;;;;;14.40;8.85;;;;;;;12.81;100.00;102095.84;6043793;23;20150;-91
2023/10/06 04:21:42;;;;;;;18.60;9.57;;;;;;;12.81;100.00;102096.66;6063218;23;20072;-91
2023/10/06 04:24:08;;;;;;;11.93;8.45;;;;;;;12.78;100.00;102094.44;6019916;23;20018;-90
2023/10/06 04:26:34;;;;;;;16.77;9.82;;;;;;;12.75;100.00;102097.66;6042938;23;20046;-89
2023/10/06 04:29:01;;;;;;;16.77;9.35;;;;;;;12.76;100.00;102075.09;6092085;23;20014;-90
2023/10/06 04:31:27;;;;;;;13.18;8.00;;;;;;;12.74;100.00;102079.09;6043907;23;20482;-89
2023/10/06 04:33:53;;;;;;;15.25;8.57;;;;;;;12.74;100.00;102071.84;6041564;23;20105;-90
2023/10/06 04:36:24;;;;;;;;;;;;;;;12.77;100.00;102060.56;5997510;23;20022;-91
2023/10/06 04:38:50;;;;;;;;;;;;;;;12.79;100.00;102047.69;6020882;23;20321;-93
2023/10/06 04:41:20;;;;;;;14.13;7.47;;;;;;;12.83;100.00;102039.94;6020808;23;19964;-88
2023/10/06 04:43:52;;;;;;;13.43;8.20;;;;;;;12.84;100.00;102047.75;6047825;23;20025;-90
2023/10/06 04:46:18;;;;;;;12.65;7.43;;;;;;;12.84;100.00;102037.00;6023505;23;20488;-90
2023/10/06 04:48:47;;;;;;;12.70;7.28;;;;;;;12.84;100.00;102033.50;6022675;23;20053;-90
2023/10/06 04:51:13;;;;;;;13.20;7.20;;;;;;;12.84;100.00;102039.69;6070568;23;20076;-90
2023/10/06 04:53:39;;;;;;;;;;;;;;;12.84;100.00;102036.19;6029046;23;20448;-90
2023/10/06 04:56:07;;;;;;;14.35;7.90;;;;;;;12.81;100.00;102039.38;6070487;23;19996;-91
2023/10/06 04:58:38;;;;;;;11.57;6.72;;;;;;;12.77;100.00;102022.94;6022379;23;20349;-89
2023/10/06 05:01:07;;;;;;;15.88;7.20;;;;;;;12.77;100.00;102035.56;6022090;23;20026;-90
2023/10/06 05:03:45;;;;;;;12.15;7.40;;;;;;;12.78;100.00;102039.88;6022233;23;20141;-89
2023/10/06 05:06:17;;;;;;;15.25;6.70;;;;;;;12.77;100.00;102028.31;6022871;23;20283;-92
2023/10/06 05:08:47;;;;;;;14.60;8.15;;;;;;;12.78;100.00;102029.94;6045972;23;20010;-92
2023/10/06 05:11:14;;;;;;;11.30;6.40;;;;;;;12.77;100.00;102033.69;6046270;23;20014;-90
2023/10/06 05:13:40;;;;;;;13.52;7.15;;;;;;;12.79;100.00;102030.75;6070347;23;20010;-90
2023/10/06 05:16:07;;;;;;;;;;;;;;;12.77;100.00;102036.38;6022708;23;20025;-91
2023/10/06 05:18:38;;;;;;;12.50;6.43;;;;;;;12.76;100.00;102024.00;6046945;23;19913;-89
2023/10/06 05:21:06;;;;;;;13.93;6.40;;;;;;;12.76;100.00;102007.88;6021453;23;20021;-90
2023/10/06 05:23:34;;;;;;;14.13;6.00;;;;;;;12.77;100.00;102008.69;6022316;23;20073;-90
2023/10/06 05:26:04;;;;;;;13.05;6.68;;;;;;;12.78;100.00;102005.75;6022388;23;20029;-89
2023/10/06 05:28:31;;;;;;;12.57;5.38;;;;;;;12.78;100.00;102008.44;6022839;23;20037;-90
2023/10/06 05:30:58;;;;;;;10.40;6.10;;;;;;;12.79;100.00;102010.06;6069647;23;20038;-90
2023/10/06 05:33:25;;;;;;;12.38;6.15;;;;;;;12.80;100.00;102000.94;6022035;23;20007;-89
2023/10/06 05:35:51;;;;;;;13.57;6.05;;;;;;;12.80;100.00;101992.88;6046281;23;20014;-88
2023/10/06 05:38:17;;;;;;;10.60;4.80;;;;;;;12.82;100.00;101989.94;6048441;23;20018;-91
2023/10/06 05:40:44;;;;;;;10.50;5.72;;;;;;;12.81;100.00;101994.50;6023662;23;20046;-90
2023/10/06 05:43:15;;;;;;;12.35;5.55;;;;;;;12.82;100.00;102008.75;6024118;23;20449;-91
2023/10/06 05:45:51;;;;;;;9.00;5.18;;;;;;;12.80;100.00;102013.53;6048212;23;20041;-91
2023/10/06 05:48:22;;;;;;;12.38;5.82;;;;;;;12.81;100.00;102001.75;6048525;23;20018;-90
2023/10/06 05:50:48;;;;;;;10.90;5.60;;;;;;;12.81;100.00;102012.50;6023468;23;20077;-90
2023/10/06 05:53:22;;;;;;;12.35;5.60;;;;;;;12.82;100.00;102009.56;6047919;23;20010;-91
2023/10/06 05:55:49;;;;;;;11.63;5.45;;;;;;;12.84;100.00;102007.41;6046950;23;20152;-89
2023/10/06 05:58:19;;;;;;;10.75;5.78;;;;;;;12.84;100.00;101996.66;6048016;23;20046;-91
2023/10/06 06:00:55;;;;;;;11.23;5.50;;;;;;;12.84;100.00;101983.22;6046989;23;20018;-88
2023/10/06 06:03:21;;;;;;;12.18;5.03;;;;;;;12.89;100.00;101970.91;6047183;23;20015;-91
2023/10/06 06:05:48;;;;;;;14.52;5.75;;;;;;;12.89;100.00;101976.28;6071301;23;20026;-90
2023/10/06 06:08:14;;;;;;;8.60;4.55;;;;;;;12.91;100.00;101985.72;6024057;23;20381;-89
2023/10/06 06:10:40;;;;;;;9.05;4.97;;;;;;;12.94;100.00;101995.97;6047527;23;20037;-90
2023/10/06 06:13:06;;;;;;;;;;;;;;;12.95;100.00;101997.59;6047287;23;20014;-91
2023/10/06 06:15:35;;;;;;;9.00;4.25;;;;;;;12.96;100.00;101987.66;6046888;23;20347;-89
2023/10/06 06:18:01;;;;;;;9.77;4.95;;;;;;;12.98;100.00;101985.50;6071019;23;20074;-90
2023/10/06 06:20:30;;;;;;;;;;;;;;;12.99;100.00;101982.56;6047772;23;20021;-89
2023/10/06 06:23:02;;;;;;;13.38;5.32;;;;;;;12.98;100.00;101972.88;6022779;23;19920;-90
2023/10/06 06:25:30;;;;;;;8.35;4.13;;;;;;;13.01;100.00;101968.88;6071620;23;20357;-90
2023/10/06 06:27:59;;;;;;;12.07;6.05;;;;;;;12.98;100.00;101961.31;6020911;23;20457;-90
2023/10/06 06:30:25;;;;;;;7.78;4.68;;;;;;;13.02;100.00;101965.13;6047271;23;20042;-89
2023/10/06 06:32:52;;;;;;;11.75;4.63;;;;;;;13.00;100.00;101973.41;6046922;23;20014;-89
2023/10/06 06:35:20;;;;;;;7.38;4.88;;;;;;;13.02;100.00;101963.22;6047337;23;20101;-91
2023/10/06 06:37:59;;;;;;;8.57;4.57;;;;;;;13.03;100.00;101985.56;6046931;23;20021;-90
2023/10/06 06:40:26;;;;;;;10.65;4.60;;;;;;;13.01;100.00;101983.13;6043283;23;20018;-89
2023/10/06 06:42:52;;;;;;;10.88;5.45;;;;;;;12.94;100.00;101973.63;6023179;23;20022;-91
2023/10/06 06:45:19;;;;;;;10.30;4.95;;;;;;;12.96;100.00;101972.31;6023749;23;20093;-89
2023/10/06 06:47:45;;;;;;;11.60;5.00;;;;;;;12.95;100.00;101964.50;6070755;23;20042;-90
2023/10/06 06:50:17;;;;;;;14.45;5.20;;;;;;;12.91;100.00;101964.19;6022926;23;20445;-88
2023/10/06 06:52:59;;;;;;;11.10;4.95;;;;;;;12.93;100.00;101963.94;6044271;23;20105;-88
2023/10/06 06:55:24;;;;;;;10.80;5.00;;;;;;;12.96;100.00;101964.25;6070893;23;20030;-89
2023/10/06 06:57:51;;;;;;;8.80;5.03;;;;;;;12.97;100.00;101968.56;6046729;23;20094;-91
2023/10/06 07:00:18;;;;;;;8.88;5.07;;;;;;;12.98;100.00;101972.88;6020992;23;20041;-88
2023/10/06 07:02:46;;;;;;;12.52;4.47;;;;;;;12.97;100.00;101957.00;6022698;23;20014;-92
2023/10/06 07:05:13;;;;;;;11.63;4.50;;;;;;;12.97;100.00;101957.00;6046347;23;20353;-91
2023/10/06 07:07:45;;;;;;;9.48;4.60;;;;;;;12.99;100.00;101960.22;6070863;23;20025;-92
2023/10/06 07:10:15;;;;;;;11.93;5.45;;;;;;;13.00;100.00;101962.66;6022578;23;20024;-91
2023/10/06 07:12:44;;;;;;;10.93;4.82;;;;;;;13.00;100.00;101976.09;6071062;23;20093;-91
2023/10/06 07:15:20;;;;;;;13.68;5.50;;;;;;;12.96;100.00;101977.69;6022603;23;20022;-91
2023/10/06 07:17:50;;;;;;;10.13;5.03;;;;;;;12.94;100.00;101979.00;6046807;23;20453;-89
2023/10/06 07:20:24;;;;;;;13.02;5.15;;;;;;;12.94;100.00;101984.38;6023003;23;20010;-88
2023/10/06 07:22:54;;;;;;;11.75;5.00;;;;;;;12.97;100.00;101995.44;6039271;23;20028;-88
2023/10/06 07:25:23;;;;;;;8.10;4.30;;;;;;;12.93;100.00;101983.56;6022469;23;20096;-91
2023/10/06 07:27:52;;;;;;;8.95;4.40;;;;;;;12.95;100.00;101959.13;6022772;23;20011;-87
2023/10/06 07:30:22;;;;;;;8.73;4.47;;;;;;;12.96;100.00;101972.31;6046302;23;20050;-88
2023/10/06 07:32:50;;;;;;;14.85;4.90;;;;;;;12.95;100.00;101967.19;6022489;23;20153;-88
2023/10/06 07:35:18;;;;;;;10.48;4.65;;;;;;;13.00;100.00;101968.03;6046342;23;20010;-87
2023/10/06 07:37:46;;;;;;;10.95;5.43;;;;;;;13.02;100.00;101965.13;6046026;23;20014;-87
2023/10/06 07:40:18;;;;;;;10.90;4.90;;;;;;;13.02;100.00;101959.72;6045827;23;20036;-92
2023/10/06 07:42:46;;;;;;;11.18;4.90;;;;;;;13.05;100.00;101943.06;6022531;23;20034;-91
2023/10/06 07:45:13;;;;;;;11.63;5.50;;;;;;;13.07;100.00;101949.00;6046459;23;20034;-90
2023/10/06 07:47:39;;;;;;;;;;;;;;;13.13;100.00;101964.09;6046273;23;20380;-89
2023/10/06 07:50:06;;;;;;;10.27;4.93;;;;;;;13.14;100.00;101968.44;6022426;23;19917;-91
2023/10/06 07:52:38;;;;;;;9.13;4.90;;;;;;;13.17;100.00;101973.31;6045256;23;20608;-88
2023/10/06 07:55:05;;;;;;;12.23;4.72;;;;;;;13.16;100.00;101966.31;6021783;23;20066;-91
2023/10/06 07:57:36;;;;;;;12.70;4.95;;;;;;;13.20;100.00;101945.06;6070263;23;20758;-91
2023/10/06 08:00:06;;;;;;;10.13;4.30;;;;;;;13.23;100.00;101934.66;6022011;23;20038;-90
2023/10/06 08:02:40;;;;;;;9.75;4.22;;;;;;;13.22;100.00;101943.78;6047823;23;20089;-90
2023/10/06 08:05:11;;;;;;;;;;;;;;;13.23;100.00;101933.84;6070566;23;20025;-88
2023/10/06 08:07:44;;;;;;;10.80;4.60;;;;;;;13.26;100.00;101944.88;6043538;23;19913;-89
2023/10/06 08:10:14;;;;;;;;;;;;;;;13.30;100.00;101937.94;6041547;23;20456;-88
2023/10/06 08:12:45;;;;;;;9.32;4.32;;;;;;;13.31;100.00;101944.91;6023052;23;19988;-90
2023/10/06 08:15:17;;;;;;;11.00;4.85;;;;;;;13.41;100.00;101962.19;6022225;23;20045;-90
2023/10/06 08:17:46;;;;;;;11.15;4.55;;;;;;;13.46;100.00;101956.84;6047393;23;20026;-90
2023/10/06 08:20:13;;;;;;;8.93;4.55;;;;;;;13.45;100.00;101939.91;6043303;23;20361;-89
2023/10/06 08:22:39;;;;;;;10.15;4.47;;;;;;;13.45;100.00;101947.97;6067967;23;20029;-91
2023/10/06 08:25:05;;;;;;;11.88;5.40;;;;;;;13.45;100.00;101936.41;6022098;23;20105;-89
2023/10/06 08:27:32;;;;;;;8.80;3.85;;;;;;;13.45;100.00;101929.13;6022778;23;20018;-87
2023/10/06 08:29:58;;;;;;;11.35;4.30;;;;;;;13.45;100.00;101939.91;6069748;23;20026;-91
2023/10/06 08:32:25;;;;;;;10.07;4.47;;;;;;;13.46;100.00;101938.81;6070764;23;20070;-90
2023/10/06 08:34:51;;;;;;;10.02;4.70;;;;;;;13.47;100.00;101942.31;6046358;23;20018;-91
2023/10/06 08:37:17;;;;;;;;;;;;;;;13.45;100.00;101936.41;6017823;23;20314;-89
2023/10/06 08:39:46;;;;;;;10.80;4.05;;;;;;;13.46;100.00;101938.81;6041209;23;19909;-89
2023/10/06 08:42:17;;;;;;;10.18;4.50;;;;;;;13.46;100.00;101924.56;6041013;23;20408;-90
2023/10/06 08:44:45;;;;;;;11.10;4.78;;;;;;;13.49;100.00;101929.44;6017424;23;20015;-88
2023/10/06 08:47:14;;;;;;;13.02;5.13;;;;;;;13.48;100.00;101912.50;6041447;23;20025;-88
2023/10/06 08:49:40;;;;;;;10.00;4.68;;;;;;;13.48;100.00;101908.97;6041470;23;20387;-89
2023/10/06 08:52:09;;;;;;;13.88;4.70;;;;;;;13.48;100.00;101915.19;6017725;23;20010;-91
2023/10/06 08:54:39;;;;;;;10.55;4.60;;;;;;;13.52;100.00;101915.44;6065624;23;20011;-88
2023/10/06 08:57:06;;;;;;;10.43;5.18;;;;;;;13.51;100.00;101903.06;6041395;23;20536;-89
2023/10/06 08:59:33;;;;;;;13.32;5.03;;;;;;;13.58;100.00;101915.22;6041374;23;20465;-88
2023/10/06 09:02:00;;;;;;;12.10;5.32;;;;;;;13.64;100.00;101924.13;6040721;23;20025;-91
2023/10/06 09:04:35;;;;;;;14.10;4.85;;;;;;;13.69;100.00;101929.56;6041248;23;20019;-90
2023/10/06 09:07:17;;;;;;;11.32;4.70;;;;;;;13.68;100.00;101911.75;6063672;23;20078;-88
2023/10/06 09:09:43;;;;;;;8.70;4.40;;;;;;;13.71;100.00;101910.44;6037830;23;20043;-90
2023/10/06 09:12:23;;;;;;;12.48;4.90;;;;;;;13.70;100.00;101901.56;6040069;23;20113;-89
2023/10/06 09:14:57;;;;;;;7.93;4.47;;;;;;;13.75;100.00;101904.28;5994173;23;20022;-89
2023/10/06 09:17:33;;;;;;;9.30;4.35;;;;;;;13.78;100.00;101911.81;6041339;23;20098;-89
2023/10/06 09:20:00;;;;;;;9.82;4.55;;;;;;;13.77;100.00;101896.75;6065142;23;20022;-90
2023/10/06 09:22:43;;;;;;;;;;;;;;;13.81;100.00;101897.81;6040622;23;20608;-88
2023/10/06 09:25:10;;;;;;;10.30;4.45;;;;;;;13.78;100.00;101906.44;6016443;23;19917;-89
2023/10/06 09:27:37;;;;;;;10.50;4.18;;;;;;;13.80;100.00;101906.97;6018087;23;20015;-90
2023/10/06 09:30:11;;;;;;;11.93;4.50;;;;;;;13.79;100.00;101899.97;6041992;23;20093;-89
2023/10/06 09:32:39;;;;;;;9.63;3.85;;;;;;;13.86;100.00;101905.13;6042604;23;20011;-90
2023/10/06 09:35:21;;;;;;;7.18;3.72;;;;;;;13.87;100.00;101922.88;6018423;23;20027;-88
2023/10/06 09:37:47;;;;;;;10.45;4.68;;;;;;;13.83;100.00;101919.13;6017790;23;20077;-88
2023/10/06 09:40:22;;;;;;;;;;;;;;;13.84;100.00;101913.47;6023203;23;20512;-89
2023/10/06 09:42:52;;;;;;;8.45;3.33;;;;;;;13.89;100.00;101910.81;6047584;23;20106;-87
2023/10/06 09:45:21;;;;;;;8.77;3.65;;;;;;;13.86;100.00;101905.94;6019820;23;20014;-90
2023/10/06 09:47:51;;;;;;;13.40;4.95;;;;;;;13.86;100.00;101899.72;6023837;23;20022;-90
2023/10/06 09:50:19;;;;;;;9.25;3.30;;;;;;;13.87;100.00;101895.97;6023045;23;20029;-89
2023/10/06 09:52:47;;;;;;;10.95;4.47;;;;;;;13.87;100.00;101882.50;6023050;23;20010;-88
2023/10/06 09:55:17;;;;;;;9.27;4.10;;;;;;;13.90;100.00;101890.88;6044190;23;20013;-91
2023/10/06 09:57:47;;;;;;;9.45;4.43;;;;;;;13.93;100.00;101881.44;6045625;23;20025;-90
2023/10/06 10:00:18;;;;;;;12.82;4.00;;;;;;;13.92;100.00;101882.53;6070526;23;20058;-90
2023/10/06 10:02:48;;;;;;;8.95;3.92;;;;;;;13.93;100.00;101871.47;6023089;23;20026;-88
2023/10/06 10:05:19;;;;;;;6.72;3.83;;;;;;;13.99;100.00;101871.50;6046759;23;20118;-88
2023/10/06 10:07:48;;;;;;;7.28;3.70;;;;;;;13.97;100.00;101866.41;6046558;23;20772;-88
2023/10/06 10:10:16;;;;;;;15.80;4.78;;;;;;;14.01;100.00;101864.78;6022902;23;20025;-90
2023/10/06 10:13:12;;;;;;;11.25;4.47;;;;;;;13.99;100.00;101871.50;6069528;23;20014;-89
2023/10/06 10:15:58;;;;;;;12.35;4.25;;;;;;;13.94;100.00;101878.47;6046714;23;20025;-89
2023/10/06 10:18:38;;;;;;;9.70;4.43;;;;;;;13.95;100.00;101868.53;6046541;23;20046;-88
2023/10/06 10:21:08;;;;;;;10.10;4.93;;;;;;;13.83;100.00;101868.78;6045032;23;20038;-90
2023/10/06 10:23:40;;;;;;;11.13;4.88;;;;;;;13.73;100.00;101851.75;6022883;23;20019;-88
2023/10/06 10:26:18;;;;;;;10.75;4.68;;;;;;;13.70;100.00;101857.69;6046387;23;20014;-88
2023/10/06 10:29:13;;;;;;;9.20;5.28;;;;;;;13.65;100.00;101864.66;6070238;23;20011;-91
2023/10/06 10:31:41;;;;;;;11.45;5.40;;;;;;;13.63;100.00;101868.69;6044775;23;20071;-88
2023/10/06 10:34:07;;;;;;;10.73;5.80;;;;;;;13.56;100.00;101878.88;6020793;23;20014;-88
2023/10/06 10:36:34;;;;;;;12.05;5.78;;;;;;;13.50;100.00;101874.53;6040399;23;20031;-90
2023/10/06 10:39:18;;;;;;;;;;;;;;;13.55;100.00;101883.47;5993269;23;20019;-89
2023/10/06 10:41:45;;;;;;;9.10;4.95;;;;;;;13.50;100.00;101869.16;5992697;23;19914;-89
2023/10/06 10:44:14;;;;;;;7.97;4.68;;;;;;;13.49;100.00;101862.16;6039727;23;20015;-87
2023/10/06 10:46:53;;;;;;;10.75;4.90;;;;;;;13.48;100.00;101868.59;6015977;23;20019;-88
2023/10/06 10:49:22;;;;;;;8.00;4.82;;;;;;;13.48;100.00;101871.28;6039100;23;20014;-89
2023/10/06 10:51:51;;;;;;;9.73;5.15;;;;;;;13.48;100.00;101860.53;6039615;23;20476;-88
2023/10/06 10:54:21;;;;;;;9.45;5.15;;;;;;;13.42;100.00;101857.00;6040578;23;20039;-88
2023/10/06 10:56:51;;;;;;;9.23;4.93;;;;;;;13.43;100.00;101866.69;6018401;23;20019;-89
2023/10/06 10:59:19;;;;;;;9.02;5.18;;;;;;;13.44;100.00;101870.19;6018024;23;20616;-88
2023/10/06 11:01:51;;;;;;;10.13;5.10;;;;;;;13.46;100.00;101866.16;6018254;23;20007;-88
2023/10/06 11:04:31;;;;;;;9.75;5.38;;;;;;;13.49;100.00;101868.34;6017649;23;20021;-87
2023/10/06 11:07:07;;;;;;;13.02;5.97;;;;;;;13.50;100.00;101853.81;6017673;23;20017;-89
2023/10/06 11:12:05;;;;;;;12.25;6.22;;;;;;;13.51;100.00;101860.00;6018328;23;20011;-87
2023/10/06 11:14:39;;;;;;;12.15;5.68;;;;;;;13.49;100.00;101856.78;6018602;23;20034;-87
2023/10/06 11:17:05;;;;;;;9.35;5.47;;;;;;;13.47;100.00;101854.31;6015783;23;20022;-88
2023/10/06 11:19:32;;;;;;;9.77;4.53;;;;;;;13.52;100.00;101851.66;6017848;23;20014;-88
2023/10/06 11:22:28;;;;;;;16.00;5.78;;;;;;;13.56;100.00;101846.59;6017875;23;20018;-87
2023/10/06 11:24:57;;;;;;;13.40;6.10;;;;;;;13.56;100.00;101835.81;5982868;23;20026;-90
2023/10/06 11:27:23;;;;;;;15.88;6.00;;;;;;;13.57;100.00;101826.66;6041753;23;20019;-88
2023/10/06 11:29:57;;;;;;;11.57;6.43;;;;;;;13.59;100.00;101829.91;6018506;23;20064;-89
2023/10/06 11:32:23;;;;;;;10.57;6.30;;;;;;;13.60;100.00;101826.13;5993612;23;20007;-89
2023/10/06 11:34:50;;;;;;;9.88;5.18;;;;;;;13.58;100.00;101815.63;5994682;23;20034;-88
2023/10/06 11:37:24;;;;;;;11.70;5.63;;;;;;;13.60;100.00;101815.38;6084618;23;20017;-88
2023/10/06 11:39:54;;;;;;;12.52;5.43;;;;;;;13.56;100.00;101808.91;6022830;23;20018;-87
2023/10/06 11:42:23;;;;;;;13.65;5.85;;;;;;;13.58;100.00;101785.22;6022230;23;20023;-87
2023/10/06 11:44:53;;;;;;;9.18;4.47;;;;;;;13.60;100.00;101785.75;6070432;23;20037;-88
2023/10/06 11:47:30;;;;;;;9.60;5.30;;;;;;;13.64;100.00;101773.41;6022580;23;20018;-89